Manteno, Illinois
Current Conditions -  °F | °C
As of 11:55 AM on Saturday 25 Oct 2014 (Local Time) from KIKK Reporting Station
Clear Clear  
Wind Chill: 67°   Ceiling: Unl
Heat Index: 67°   Visibility: 10mi
Dew Point: 56°   Wind: 10mph
Humidity: 69%   Direction: 300°WNW
Pressure: 29.98"   Gusts: NA
Location:  41.25°N, 87.83°W
Report Text: KIKK 251655Z AUTO 30009KT 10SM CLR 20/14 A2998 RMK AO2 T01950136
Loading
Personal Weather Stations






























Interactive Weather Map New forecast layout! Learn more

10-Day Weather Forecast

Advertisements
Track Severe Weather on mobile